GMMH

Dakhla Airport

Dakhla, Western Sahara
METAR GMMH 231100Z 02016KT CAVOK 21/15 Q1018 NOSIG
Observed Flight Rules
May-23 @ 11:00 UTC (12 minutes ago) Visual Flight Rules
Wind Visibility Clouds
20° at 16 knots 10,000+ meters
  • Clear skies
Temperatures Readings
Current 21°C / 70°F
Dewpoint 15°C / 59°F
Humidity 69%
Altimeter 30.06" Hg
Pressure 1018 hPa
Elevation 11
METAR GMMH 231100Z 02016KT CAVOK 21/15 Q1018 NOSIG
Observed Flight Rules
May-23 @ 11:00 UTC
(12 minutes ago)
VFR
Wind Visibility
20° at 16 knots 10,000+ meters
Clouds
  • Clear skies
Temperature Dewpoint
21°C / 70°F 15°C / 59°F
Humidity Altimeter Pressure
69% 30.06" Hg 1018 hPa